createdAt,value
2023-03-25T00:01:32.820Z,13.30
2023-03-25T00:03:37.385Z,13.30
2023-03-25T00:05:41.656Z,13.20
2023-03-25T00:07:45.358Z,13.20
2023-03-25T00:09:48.958Z,13.10
2023-03-25T00:11:51.819Z,13.00
2023-03-25T00:13:56.203Z,13.00
2023-03-25T00:16:02.195Z,13.00
2023-03-25T00:18:05.259Z,12.90
2023-03-25T00:20:10.331Z,12.90
2023-03-25T00:22:13.358Z,12.80
2023-03-25T00:24:17.829Z,12.80
2023-03-25T00:26:20.667Z,12.80
2023-03-25T00:28:25.014Z,12.80
2023-03-25T00:30:29.210Z,12.80
2023-03-25T00:32:32.065Z,12.90
2023-03-25T00:34:41.667Z,12.90
2023-03-25T00:36:45.643Z,12.90
2023-03-25T00:38:51.134Z,12.90
2023-03-25T00:40:54.007Z,12.90
2023-03-25T00:42:57.317Z,12.90
2023-03-25T00:45:00.152Z,12.90
2023-03-25T00:47:04.450Z,13.00
2023-03-25T00:49:07.377Z,13.00
2023-03-25T00:51:14.396Z,13.00
2023-03-25T00:53:17.169Z,13.00
2023-03-25T00:55:20.293Z,12.90
2023-03-25T00:57:23.180Z,12.80
2023-03-25T00:59:25.959Z,12.70
2023-03-25T01:01:29.681Z,12.60
2023-03-25T01:05:41.597Z,12.60
2023-03-25T01:07:44.366Z,12.60
2023-03-25T01:09:47.704Z,12.60
2023-03-25T01:11:50.576Z,12.50
2023-03-25T01:13:54.994Z,12.50
2023-03-25T01:15:57.840Z,12.50
2023-03-25T01:18:00.764Z,12.60
2023-03-25T01:20:08.944Z,12.50
2023-03-25T01:22:12.462Z,12.60
2023-03-25T01:24:15.748Z,12.60
2023-03-25T01:26:18.549Z,12.60
2023-03-25T01:28:21.611Z,12.60
2023-03-25T01:30:24.485Z,12.70
2023-03-25T01:32:27.248Z,12.70
2023-03-25T01:34:30.093Z,12.70
2023-03-25T01:36:36.075Z,12.80
2023-03-25T01:38:38.867Z,12.90
2023-03-25T01:40:41.648Z,13.00
2023-03-25T01:42:44.437Z,13.00
2023-03-25T01:45:22.387Z,13.00
2023-03-25T01:47:26.817Z,13.00
2023-03-25T01:49:34.360Z,13.00
2023-03-25T01:51:41.819Z,13.00
2023-03-25T01:53:45.022Z,13.00
2023-03-25T01:55:48.604Z,13.00
2023-03-25T01:57:55.131Z,13.10
2023-03-25T01:59:58.061Z,13.10
2023-03-25T02:02:04.694Z,13.10
2023-03-25T02:04:12.335Z,13.10
2023-03-25T02:06:20.611Z,13.10
2023-03-25T02:08:26.718Z,13.10
2023-03-25T02:10:30.643Z,13.10
2023-03-25T02:12:33.572Z,13.10
2023-03-25T02:14:39.076Z,13.00
2023-03-25T02:16:50.222Z,13.00
2023-03-25T02:19:08.211Z,13.00
2023-03-25T02:21:55.080Z,13.00
2023-03-25T02:24:43.168Z,12.80
2023-03-25T02:27:27.294Z,12.80
2023-03-25T02:29:49.005Z,12.80
2023-03-25T02:32:05.372Z,12.80
2023-03-25T02:34:31.470Z,12.70
2023-03-25T02:36:58.546Z,12.70
2023-03-25T02:39:06.608Z,12.80
2023-03-25T02:41:15.812Z,12.50
2023-03-25T02:43:24.418Z,12.70
2023-03-25T02:45:32.502Z,12.60
2023-03-25T02:47:39.159Z,12.50
2023-03-25T02:49:46.447Z,12.60
2023-03-25T02:51:55.606Z,12.60
2023-03-25T02:54:03.569Z,12.50
2023-03-25T02:56:12.461Z,12.50
2023-03-25T02:58:18.212Z,12.50
2023-03-25T03:00:26.770Z,12.50
2023-03-25T03:02:32.694Z,12.60
2023-03-25T03:04:47.000Z,12.70
2023-03-25T03:06:49.823Z,12.90
2023-03-25T03:09:22.855Z,12.90
2023-03-25T03:11:30.046Z,12.80
2023-03-25T03:13:48.376Z,12.60
2023-03-25T03:16:03.738Z,12.50
2023-03-25T03:18:14.459Z,12.30
2023-03-25T03:20:20.760Z,12.30
2023-03-25T03:22:35.275Z,12.30
2023-03-25T03:24:41.055Z,12.30
2023-03-25T03:26:49.838Z,12.30
2023-03-25T03:29:01.371Z,12.30
2023-03-25T03:31:08.667Z,12.40
2023-03-25T03:33:17.889Z,12.10
2023-03-25T03:35:25.986Z,12.10
2023-03-25T03:37:36.649Z,12.20
2023-03-25T03:39:39.897Z,12.10
2023-03-25T03:41:48.497Z,12.20
2023-03-25T03:43:55.683Z,12.20
2023-03-25T03:46:03.029Z,12.10
2023-03-25T03:48:11.203Z,11.90
2023-03-25T03:50:18.609Z,12.00
2023-03-25T03:52:26.549Z,12.10
2023-03-25T03:54:32.922Z,12.00
2023-03-25T03:56:39.229Z,12.00
2023-03-25T03:58:44.458Z,11.90
2023-03-25T04:00:51.874Z,11.90
2023-03-25T04:02:59.886Z,11.80
2023-03-25T04:05:03.162Z,11.80
2023-03-25T04:07:14.728Z,11.90
2023-03-25T04:09:27.157Z,11.70
2023-03-25T04:11:36.772Z,11.80
2023-03-25T04:13:44.990Z,12.00
2023-03-25T04:15:48.573Z,12.00
2023-03-25T04:17:51.579Z,12.10
2023-03-25T04:19:54.422Z,12.10
2023-03-25T04:21:57.179Z,12.20
2023-03-25T04:24:01.442Z,12.40
2023-03-25T04:26:04.642Z,12.30
2023-03-25T04:28:07.833Z,12.30
2023-03-25T04:30:14.740Z,12.30
2023-03-25T04:32:18.040Z,12.40
2023-03-25T04:34:20.835Z,12.30
2023-03-25T04:36:23.866Z,12.40
2023-03-25T04:38:29.048Z,12.30
2023-03-25T04:40:32.939Z,12.30
2023-03-25T04:42:37.370Z,12.40
2023-03-25T04:44:40.173Z,12.40
2023-03-25T04:46:44.711Z,12.40
2023-03-25T04:48:47.807Z,12.40
2023-03-25T04:50:51.750Z,12.40
2023-03-25T04:52:54.878Z,12.40
2023-03-25T04:54:58.151Z,12.10
2023-03-25T04:57:01.506Z,12.20
2023-03-25T04:59:04.592Z,12.30
2023-03-25T05:01:11.373Z,12.10
2023-03-25T05:03:15.963Z,12.10
2023-03-25T05:05:20.732Z,11.90
2023-03-25T05:07:23.531Z,12.00
2023-03-25T05:09:26.360Z,11.90
2023-03-25T05:11:29.513Z,11.60
2023-03-25T05:13:32.285Z,11.90
2023-03-25T05:15:39.458Z,11.90
2023-03-25T05:17:43.988Z,12.00
2023-03-25T05:19:48.160Z,12.10
2023-03-25T05:21:50.963Z,12.20
2023-03-25T05:23:53.720Z,12.20
2023-03-25T05:25:56.891Z,12.20
2023-03-25T05:27:59.645Z,12.20
2023-03-25T05:30:03.347Z,12.00
2023-03-25T05:32:06.865Z,12.20
2023-03-25T05:34:09.786Z,11.90
2023-03-25T05:36:16.388Z,12.00
2023-03-25T05:38:19.556Z,12.00
2023-03-25T05:40:22.398Z,11.90
2023-03-25T05:42:25.318Z,11.90
2023-03-25T05:44:28.081Z,12.00
2023-03-25T05:46:30.847Z,12.10
2023-03-25T05:48:35.667Z,12.10
2023-03-25T05:50:42.671Z,12.20
2023-03-25T05:52:49.457Z,12.20
2023-03-25T05:54:52.331Z,12.00
2023-03-25T05:56:55.097Z,12.00
2023-03-25T05:58:58.249Z,11.80
2023-03-25T06:01:03.083Z,11.10
2023-03-25T06:03:08.546Z,10.80
2023-03-25T06:05:13.923Z,10.30
2023-03-25T06:07:20.206Z,9.90
2023-03-25T06:09:24.384Z,10.20
2023-03-25T06:11:27.316Z,10.50
2023-03-25T06:13:33.913Z,10.70
2023-03-25T06:15:40.639Z,10.80
2023-03-25T06:17:46.638Z,10.80
2023-03-25T06:19:49.681Z,10.90
2023-03-25T06:21:52.508Z,10.80
2023-03-25T06:23:56.532Z,10.80
2023-03-25T06:26:00.662Z,10.90
2023-03-25T06:28:04.080Z,10.80
2023-03-25T06:30:08.575Z,10.80
2023-03-25T06:32:14.018Z,10.80
2023-03-25T06:34:16.775Z,10.80
2023-03-25T06:36:20.558Z,10.90
2023-03-25T06:38:23.373Z,11.10
2023-03-25T06:40:26.303Z,11.00
2023-03-25T06:42:30.496Z,11.10
2023-03-25T06:44:33.883Z,11.20
2023-03-25T06:46:37.175Z,10.80
2023-03-25T06:48:40.199Z,10.80
2023-03-25T06:50:43.786Z,11.00
2023-03-25T06:52:46.594Z,11.00
2023-03-25T06:54:49.831Z,11.20
2023-03-25T06:56:53.115Z,11.00
2023-03-25T06:58:57.766Z,10.80
2023-03-25T07:01:03.791Z,11.10
2023-03-25T07:03:06.729Z,11.10
2023-03-25T07:05:10.278Z,11.20
2023-03-25T07:07:13.122Z,11.20
2023-03-25T07:09:16.577Z,11.50
2023-03-25T07:11:24.351Z,11.70
2023-03-25T07:13:27.178Z,11.80
2023-03-25T07:15:31.323Z,12.00
2023-03-25T07:17:34.127Z,12.10
2023-03-25T07:19:36.922Z,11.80
2023-03-25T07:21:39.755Z,11.60
2023-03-25T07:23:42.530Z,11.80
2023-03-25T07:25:45.709Z,11.90
2023-03-25T07:27:48.482Z,12.00
2023-03-25T07:29:51.569Z,12.10
2023-03-25T07:31:55.695Z,12.40
2023-03-25T07:33:59.838Z,12.50
2023-03-25T07:36:02.878Z,12.50
2023-03-25T07:38:06.291Z,12.40
2023-03-25T07:40:10.366Z,12.30
2023-03-25T07:42:13.162Z,12.50
2023-03-25T07:44:17.820Z,12.80
2023-03-25T07:46:21.116Z,12.90
2023-03-25T07:48:25.338Z,13.00
2023-03-25T07:50:28.193Z,13.10
2023-03-25T07:52:30.963Z,13.20
2023-03-25T07:54:33.872Z,13.30
2023-03-25T07:56:36.796Z,13.20
2023-03-25T07:58:39.635Z,13.10
2023-03-25T08:00:42.412Z,13.20
2023-03-25T08:02:45.323Z,13.20
2023-03-25T08:04:49.532Z,13.70
2023-03-25T08:06:52.349Z,13.90
2023-03-25T08:08:55.705Z,14.00
2023-03-25T08:10:58.980Z,14.20
2023-03-25T08:13:01.909Z,14.30
2023-03-25T08:15:05.392Z,14.60
2023-03-25T08:17:08.191Z,14.70
2023-03-25T08:19:11.099Z,14.50
2023-03-25T08:21:15.401Z,14.60
2023-03-25T08:23:20.113Z,14.50
2023-03-25T08:25:22.957Z,14.70
2023-03-25T08:27:25.760Z,14.90
2023-03-25T08:29:29.864Z,14.80
2023-03-25T08:31:33.952Z,14.80
2023-03-25T08:33:39.508Z,14.70
2023-03-25T08:35:42.968Z,14.80
2023-03-25T08:37:47.104Z,14.90
2023-03-25T08:39:50.457Z,15.00
2023-03-25T08:41:53.241Z,14.90
2023-03-25T08:43:56.055Z,14.80
2023-03-25T08:45:58.957Z,14.40
2023-03-25T08:48:02.196Z,14.30
2023-03-25T08:50:05.825Z,14.50
2023-03-25T08:52:10.277Z,14.90
2023-03-25T08:54:14.447Z,15.00
2023-03-25T08:56:17.392Z,15.30
2023-03-25T08:58:20.873Z,15.40
2023-03-25T09:00:25.301Z,15.40
2023-03-25T09:02:28.185Z,15.50
2023-03-25T09:04:31.375Z,15.90
2023-03-25T09:06:48.063Z,16.10
2023-03-25T09:08:57.269Z,15.80
2023-03-25T09:11:01.605Z,15.90
2023-03-25T09:13:04.545Z,15.10
2023-03-25T09:15:08.616Z,15.30
2023-03-25T09:17:11.446Z,15.20
2023-03-25T09:19:14.272Z,15.00
2023-03-25T09:21:17.061Z,14.90
2023-03-25T09:23:19.874Z,14.90
2023-03-25T09:25:23.271Z,14.40
2023-03-25T09:27:27.545Z,14.50
2023-03-25T09:29:30.782Z,14.30
2023-03-25T09:31:34.391Z,14.30
2023-03-25T09:33:37.738Z,14.40
2023-03-25T09:35:41.659Z,14.80
2023-03-25T09:37:44.585Z,14.80
2023-03-25T09:39:47.631Z,14.90
2023-03-25T09:42:08.862Z,14.80
2023-03-25T09:44:20.235Z,14.90
2023-03-25T09:46:23.643Z,14.90
2023-03-25T09:48:33.146Z,14.70
2023-03-25T09:50:37.788Z,14.80
2023-03-25T09:52:51.462Z,15.10
2023-03-25T09:55:00.479Z,15.30
2023-03-25T09:57:08.483Z,15.40
2023-03-25T09:59:16.020Z,15.30
2023-03-25T10:01:28.703Z,15.20
2023-03-25T10:03:38.481Z,15.50
2023-03-25T10:06:02.769Z,15.80
2023-03-25T10:08:14.395Z,15.70
2023-03-25T10:10:25.308Z,15.80
2023-03-25T10:12:38.566Z,16.10
2023-03-25T10:14:56.310Z,16.10
2023-03-25T10:17:12.418Z,15.80
2023-03-25T10:19:31.925Z,15.90
2023-03-25T10:21:42.162Z,15.80
2023-03-25T10:23:51.998Z,15.80
2023-03-25T10:26:00.270Z,15.80
2023-03-25T10:28:04.206Z,15.80
2023-03-25T10:30:16.233Z,15.80
2023-03-25T10:32:25.591Z,15.70
2023-03-25T10:34:36.271Z,16.00
2023-03-25T10:36:46.958Z,16.10
2023-03-25T10:38:54.419Z,16.40
2023-03-25T10:41:06.301Z,16.50
2023-03-25T10:43:17.585Z,16.70
2023-03-25T10:45:23.539Z,16.80
2023-03-25T10:47:31.867Z,16.80
2023-03-25T10:49:37.003Z,16.90
2023-03-25T10:51:39.911Z,16.90
2023-03-25T10:53:43.657Z,16.00
2023-03-25T10:55:48.095Z,16.40
2023-03-25T10:57:52.364Z,16.40
2023-03-25T11:00:06.041Z,16.50
2023-03-25T11:02:16.373Z,16.60
2023-03-25T11:04:22.293Z,16.90
2023-03-25T11:06:29.633Z,16.90
2023-03-25T11:08:32.545Z,16.80
2023-03-25T11:10:35.441Z,16.60
2023-03-25T11:14:45.870Z,15.80
2023-03-25T11:16:53.383Z,16.00
2023-03-25T11:19:01.701Z,16.00
2023-03-25T11:21:08.472Z,15.50
2023-03-25T11:23:21.042Z,15.90
2023-03-25T11:25:27.764Z,15.70
2023-03-25T11:27:32.050Z,15.40
2023-03-25T11:29:37.123Z,15.00
2023-03-25T11:31:42.242Z,14.90
2023-03-25T11:33:46.678Z,15.20
2023-03-25T11:35:51.052Z,14.80
2023-03-25T11:37:57.568Z,15.30
2023-03-25T11:40:06.685Z,15.30
2023-03-25T11:42:32.151Z,15.30
2023-03-25T11:44:34.951Z,15.50
2023-03-25T11:46:43.637Z,15.50
2023-03-25T11:48:47.779Z,15.80
2023-03-25T11:50:58.722Z,16.20
2023-03-25T11:53:03.777Z,15.70
2023-03-25T11:55:07.406Z,15.70
2023-03-25T11:57:16.183Z,15.10
2023-03-25T11:59:24.795Z,15.60
2023-03-25T12:01:30.045Z,15.70
2023-03-25T12:03:35.012Z,15.90
2023-03-25T12:05:38.984Z,15.40
2023-03-25T12:07:48.265Z,15.30
2023-03-25T12:09:55.810Z,15.80
2023-03-25T12:12:29.709Z,16.00
2023-03-25T12:14:41.850Z,16.20
2023-03-25T12:16:52.800Z,16.20
2023-03-25T12:19:12.233Z,16.50
2023-03-25T12:21:27.397Z,16.60
2023-03-25T12:23:40.776Z,16.70
2023-03-25T12:25:55.665Z,16.80
2023-03-25T12:28:09.753Z,16.90
2023-03-25T12:30:26.386Z,16.80
2023-03-25T12:32:39.536Z,16.90
2023-03-25T12:34:55.268Z,16.90
2023-03-25T12:37:06.817Z,16.80
2023-03-25T12:39:35.782Z,16.50
2023-03-25T12:41:50.939Z,16.50
2023-03-25T12:44:02.799Z,16.30
2023-03-25T12:46:25.617Z,15.90
2023-03-25T12:48:42.790Z,16.10
2023-03-25T12:50:55.387Z,16.00
2023-03-25T12:53:05.270Z,16.20
2023-03-25T12:55:38.000Z,16.20
2023-03-25T12:57:53.043Z,16.60
2023-03-25T13:00:16.076Z,16.80
2023-03-25T13:02:32.956Z,16.60
2023-03-25T13:04:57.117Z,16.20
2023-03-25T13:07:04.239Z,16.70
2023-03-25T13:09:13.858Z,17.10
2023-03-25T13:11:22.125Z,17.20
2023-03-25T13:13:26.601Z,17.20
2023-03-25T13:15:34.543Z,17.10
2023-03-25T13:17:42.683Z,16.70
2023-03-25T13:19:47.048Z,16.00
2023-03-25T13:21:54.807Z,16.10
2023-03-25T13:24:02.752Z,15.90
2023-03-25T13:26:09.218Z,15.90
2023-03-25T13:28:17.640Z,16.00
2023-03-25T13:30:28.844Z,16.10
2023-03-25T13:32:37.766Z,16.60
2023-03-25T13:34:47.705Z,16.90
2023-03-25T13:37:03.318Z,16.80
2023-03-25T13:39:13.643Z,16.90
2023-03-25T13:41:21.527Z,17.00
2023-03-25T13:43:34.642Z,16.90
2023-03-25T13:45:44.583Z,17.10
2023-03-25T13:47:53.085Z,17.10
2023-03-25T13:49:59.213Z,16.90
2023-03-25T13:52:02.558Z,16.90
2023-03-25T13:54:10.383Z,16.70
2023-03-25T13:56:35.846Z,16.50
2023-03-25T13:59:01.253Z,16.20
2023-03-25T14:01:46.125Z,16.10
2023-03-25T14:04:11.711Z,16.00
2023-03-25T14:06:45.092Z,16.10
2023-03-25T14:09:26.474Z,16.70
2023-03-25T14:11:37.450Z,16.70
2023-03-25T14:13:44.209Z,17.00
2023-03-25T14:15:56.919Z,16.90
2023-03-25T14:18:01.083Z,16.70
2023-03-25T14:20:08.976Z,16.30
2023-03-25T14:22:17.998Z,16.30
2023-03-25T14:24:28.123Z,16.90
2023-03-25T14:26:32.918Z,16.70
2023-03-25T14:28:39.405Z,16.60
2023-03-25T14:30:43.665Z,16.30
2023-03-25T14:32:46.779Z,16.10
2023-03-25T14:34:51.211Z,15.90
2023-03-25T14:37:30.582Z,15.70
2023-03-25T14:39:42.891Z,15.40
2023-03-25T14:42:00.745Z,15.20
2023-03-25T14:44:19.145Z,15.30
2023-03-25T14:46:26.121Z,15.30
2023-03-25T14:48:37.529Z,15.30
2023-03-25T14:50:40.992Z,15.50
2023-03-25T14:52:46.157Z,15.70
2023-03-25T14:54:54.546Z,16.20
2023-03-25T14:57:03.916Z,16.40
2023-03-25T14:59:13.412Z,16.90
2023-03-25T15:01:19.268Z,16.70
2023-03-25T15:03:29.176Z,16.20
2023-03-25T15:05:34.830Z,16.10
2023-03-25T15:07:45.228Z,15.90
2023-03-25T15:09:53.807Z,15.80
2023-03-25T15:12:00.547Z,14.70
2023-03-25T15:14:06.643Z,14.70
2023-03-25T15:16:19.850Z,14.40
2023-03-25T15:18:56.347Z,14.70
2023-03-25T15:21:05.560Z,14.20
2023-03-25T15:23:33.574Z,14.50
2023-03-25T15:25:37.547Z,15.00
2023-03-25T15:28:16.642Z,14.70
2023-03-25T15:30:34.065Z,14.90
2023-03-25T15:32:57.091Z,14.90
2023-03-25T15:35:33.382Z,15.30
2023-03-25T15:38:09.721Z,15.60
2023-03-25T15:40:26.698Z,15.80
2023-03-25T15:42:56.969Z,16.00
2023-03-25T15:45:18.492Z,16.20
2023-03-25T15:48:07.287Z,16.50
2023-03-25T15:50:22.132Z,16.70
2023-03-25T15:52:45.147Z,16.80
2023-03-25T15:54:52.905Z,16.60
2023-03-25T15:56:59.340Z,16.50
2023-03-25T15:59:07.128Z,16.50
2023-03-25T16:01:21.539Z,16.50
2023-03-25T16:03:27.470Z,16.30
2023-03-25T16:05:31.271Z,16.30
2023-03-25T16:07:36.022Z,16.10
2023-03-25T16:09:44.684Z,15.90
2023-03-25T16:11:48.863Z,15.70
2023-03-25T16:14:08.319Z,15.60
2023-03-25T16:16:13.579Z,15.50
2023-03-25T16:18:17.439Z,15.40
2023-03-25T16:20:25.806Z,15.20
2023-03-25T16:22:30.404Z,15.00
2023-03-25T16:24:34.251Z,14.90
2023-03-25T16:26:42.371Z,14.90
2023-03-25T16:28:46.710Z,14.70
2023-03-25T16:30:53.266Z,14.70
2023-03-25T16:33:11.671Z,14.60
2023-03-25T16:35:21.520Z,14.60
2023-03-25T16:37:25.395Z,14.30
2023-03-25T16:39:28.788Z,14.30
2023-03-25T16:41:31.843Z,14.20
2023-03-25T16:43:34.955Z,14.00
2023-03-25T16:45:39.856Z,14.30
2023-03-25T16:47:44.983Z,14.50
2023-03-25T16:49:52.462Z,14.50
2023-03-25T16:51:57.580Z,14.50
2023-03-25T16:54:00.601Z,13.90
2023-03-25T16:56:20.995Z,14.30
2023-03-25T16:58:27.056Z,14.20
2023-03-25T17:00:43.256Z,13.90
2023-03-25T17:02:49.808Z,13.90
2023-03-25T17:04:55.773Z,13.70
2023-03-25T17:07:02.526Z,13.60
2023-03-25T17:09:08.659Z,13.60
2023-03-25T17:11:11.545Z,13.40
2023-03-25T17:13:22.711Z,13.60
2023-03-25T17:15:27.519Z,13.50
2023-03-25T17:17:40.283Z,13.50
2023-03-25T17:19:46.768Z,13.50
2023-03-25T17:22:05.391Z,13.50
2023-03-25T17:24:23.852Z,13.60
2023-03-25T17:26:32.613Z,13.10
2023-03-25T17:28:39.326Z,12.80
2023-03-25T17:30:44.694Z,13.10
2023-03-25T17:32:51.180Z,13.00
2023-03-25T17:34:58.958Z,13.10
2023-03-25T17:37:04.021Z,13.30
2023-03-25T17:39:15.449Z,13.20
2023-03-25T17:41:19.508Z,13.20
2023-03-25T17:43:22.302Z,12.70
2023-03-25T17:45:26.158Z,12.80
2023-03-25T17:47:29.059Z,12.90
2023-03-25T17:49:33.899Z,12.90
2023-03-25T17:51:36.770Z,12.90
2023-03-25T17:53:39.505Z,13.00
2023-03-25T17:55:42.281Z,12.90
2023-03-25T17:57:45.078Z,13.00
2023-03-25T17:59:48.532Z,13.10
2023-03-25T18:01:51.788Z,13.00
2023-03-25T18:03:55.038Z,13.10
2023-03-25T18:06:00.871Z,13.00
2023-03-25T18:08:04.385Z,13.20
2023-03-25T18:10:16.041Z,13.00
2023-03-25T18:12:18.800Z,13.10
2023-03-25T18:14:22.299Z,12.90
2023-03-25T18:16:25.162Z,13.00
2023-03-25T18:18:28.048Z,13.00
2023-03-25T18:20:33.517Z,13.00
2023-03-25T18:22:37.665Z,12.50
2023-03-25T18:24:40.488Z,12.60
2023-03-25T18:26:44.800Z,12.50
2023-03-25T18:28:48.475Z,12.20
2023-03-25T18:30:53.923Z,12.30
2023-03-25T18:32:57.381Z,12.30
2023-03-25T18:35:00.295Z,12.30
2023-03-25T18:37:03.233Z,12.40
2023-03-25T18:39:08.273Z,12.50
2023-03-25T18:41:14.357Z,12.50
2023-03-25T18:43:17.624Z,12.60
2023-03-25T18:45:21.542Z,12.50
2023-03-25T18:47:24.596Z,12.50
2023-03-25T18:49:29.096Z,12.50
2023-03-25T18:51:32.103Z,12.40
2023-03-25T18:53:35.016Z,12.40
2023-03-25T18:55:39.276Z,12.50
2023-03-25T18:57:42.364Z,12.60
2023-03-25T18:59:45.117Z,12.70
2023-03-25T19:01:48.409Z,12.60
2023-03-25T19:03:51.548Z,12.60
2023-03-25T19:05:54.432Z,12.70
2023-03-25T19:07:57.462Z,12.70
2023-03-25T19:10:00.301Z,12.60
2023-03-25T19:12:04.530Z,12.50
2023-03-25T19:14:07.382Z,12.20
2023-03-25T19:16:10.716Z,11.90
2023-03-25T19:18:17.803Z,12.10
2023-03-25T19:20:22.976Z,12.30
2023-03-25T19:22:26.338Z,12.40
2023-03-25T19:24:29.178Z,12.40
2023-03-25T19:26:31.975Z,12.50
2023-03-25T19:28:36.210Z,12.40
2023-03-25T19:30:39.112Z,12.50
2023-03-25T19:32:42.822Z,12.60
2023-03-25T19:34:46.382Z,12.60
2023-03-25T19:36:49.160Z,12.60
2023-03-25T19:38:53.112Z,12.30
2023-03-25T19:41:04.508Z,12.40
2023-03-25T19:43:07.525Z,12.30
2023-03-25T19:45:13.717Z,12.40
2023-03-25T19:47:16.507Z,11.80
2023-03-25T19:49:29.177Z,11.90
2023-03-25T19:51:39.420Z,12.00
2023-03-25T19:53:42.254Z,11.40
2023-03-25T19:55:45.730Z,10.90
2023-03-25T19:57:49.505Z,10.70
2023-03-25T19:59:52.562Z,10.50
2023-03-25T20:01:57.165Z,10.90
2023-03-25T20:03:59.937Z,11.20
2023-03-25T20:06:06.071Z,11.50
2023-03-25T20:08:09.671Z,11.60
2023-03-25T20:10:20.194Z,11.60
2023-03-25T20:12:23.293Z,11.90
2023-03-25T20:14:26.448Z,11.70
2023-03-25T20:16:30.790Z,11.60
2023-03-25T20:18:34.966Z,11.70
2023-03-25T20:20:37.748Z,11.70
2023-03-25T20:22:42.090Z,11.40
2023-03-25T20:24:44.941Z,11.10
2023-03-25T20:26:47.964Z,10.70
2023-03-25T20:28:51.207Z,9.40
2023-03-25T20:30:55.281Z,9.00
2023-03-25T20:32:58.107Z,8.10
2023-03-25T20:35:02.916Z,8.10
2023-03-25T20:37:05.855Z,8.00
2023-03-25T20:39:08.605Z,7.60
2023-03-25T20:41:12.733Z,7.80
2023-03-25T20:43:15.717Z,7.60
2023-03-25T20:45:21.012Z,7.90
2023-03-25T20:47:23.868Z,8.00
2023-03-25T20:49:27.148Z,8.20
2023-03-25T20:51:31.293Z,8.30
2023-03-25T20:53:34.563Z,8.30
2023-03-25T20:55:38.029Z,8.40
2023-03-25T20:57:41.709Z,8.70
2023-03-25T20:59:44.548Z,8.70
2023-03-25T21:01:50.634Z,8.90
2023-03-25T21:03:53.732Z,9.10
2023-03-25T21:05:58.445Z,9.30
2023-03-25T21:08:02.735Z,9.40
2023-03-25T21:10:08.749Z,9.50
2023-03-25T21:12:11.832Z,9.60
2023-03-25T21:14:14.754Z,9.70
2023-03-25T21:16:17.917Z,9.70
2023-03-25T21:18:23.019Z,9.70
2023-03-25T21:20:28.730Z,9.70
2023-03-25T21:22:31.519Z,9.60
2023-03-25T21:24:35.987Z,9.60
2023-03-25T21:26:38.867Z,9.60
2023-03-25T21:28:42.558Z,9.40
2023-03-25T21:30:45.584Z,9.20
2023-03-25T21:32:48.393Z,9.20
2023-03-25T21:34:51.294Z,9.10
2023-03-25T21:36:54.245Z,9.10
2023-03-25T21:38:58.466Z,9.20
2023-03-25T21:41:04.877Z,9.20
2023-03-25T21:43:07.689Z,9.10
2023-03-25T21:45:13.497Z,9.40
2023-03-25T21:47:17.671Z,9.50
2023-03-25T21:49:22.310Z,9.50
2023-03-25T21:51:26.588Z,9.50
2023-03-25T21:53:31.180Z,9.50
2023-03-25T21:55:34.293Z,9.60
2023-03-25T21:57:39.549Z,9.70
2023-03-25T21:59:49.573Z,9.70
2023-03-25T22:01:53.231Z,9.90
2023-03-25T22:03:57.298Z,10.00
2023-03-25T22:06:04.209Z,10.00
2023-03-25T22:08:07.527Z,10.10
2023-03-25T22:10:11.558Z,10.10
2023-03-25T22:12:14.630Z,10.00
2023-03-25T22:14:18.824Z,10.10
2023-03-25T22:16:22.700Z,10.00
2023-03-25T22:18:25.889Z,10.20
2023-03-25T22:20:28.689Z,10.10
2023-03-25T22:22:31.509Z,10.10
2023-03-25T22:24:34.391Z,9.90
2023-03-25T22:26:40.127Z,9.60
2023-03-25T22:28:43.795Z,9.90
2023-03-25T22:30:47.954Z,9.70
2023-03-25T22:32:51.051Z,9.90
2023-03-25T22:34:53.887Z,9.60
2023-03-25T22:36:56.612Z,9.80
2023-03-25T22:38:59.804Z,9.80
2023-03-25T22:41:07.104Z,9.80
2023-03-25T22:43:10.861Z,9.90
2023-03-25T22:45:13.831Z,9.90
2023-03-25T22:47:17.939Z,10.10
2023-03-25T22:49:21.721Z,10.10
2023-03-25T22:51:24.938Z,10.20
2023-03-25T22:53:28.470Z,10.20
2023-03-25T22:55:31.366Z,10.20
2023-03-25T22:57:34.149Z,10.20
2023-03-25T22:59:39.206Z,10.20
2023-03-25T23:01:42.776Z,10.20
2023-03-25T23:03:47.595Z,10.30
2023-03-25T23:05:58.680Z,10.30
2023-03-25T23:08:01.638Z,10.30
2023-03-25T23:10:07.300Z,10.40
2023-03-25T23:12:11.680Z,10.40
2023-03-25T23:14:14.567Z,10.00
2023-03-25T23:16:19.410Z,10.10
2023-03-25T23:18:22.237Z,10.20
2023-03-25T23:20:28.009Z,10.10
2023-03-25T23:22:30.879Z,9.70
2023-03-25T23:24:36.040Z,9.80
2023-03-25T23:26:40.830Z,10.00
2023-03-25T23:28:45.477Z,10.10
2023-03-25T23:30:48.389Z,10.10
2023-03-25T23:32:51.241Z,9.90
2023-03-25T23:34:59.133Z,10.00
2023-03-25T23:37:03.696Z,10.10
2023-03-25T23:39:08.031Z,10.20
2023-03-25T23:41:12.667Z,10.20
2023-03-25T23:43:15.704Z,10.20
2023-03-25T23:45:18.688Z,10.20
2023-03-25T23:47:21.546Z,10.20
2023-03-25T23:49:24.420Z,10.30
2023-03-25T23:51:27.223Z,10.30
2023-03-25T23:53:33.317Z,10.30
2023-03-25T23:55:37.254Z,10.30
2023-03-25T23:57:40.290Z,10.20
2023-03-25T23:59:44.128Z,10.20
